Time;durP1;ratioP1;P1;durP2;ratioP2;P2;SDS_P1;SDS_P2;PMS_P1;PMS_P2;Temp;Humidity;BMP_temperature;BMP_pressure;BME280_temperature;BME280_humidity;BME280_pressure;Samples;Min_cycle;Max_cycle;Signal;HPM_P1;HPM_P2
2023/12/22 00:04:44;;;;;;;9.88;5.20;;;;;;;-1.10;98.24;97721.31;10439594;28;20505;-65
2023/12/22 00:09:46;;;;;;;9.18;4.78;;;;;;;-1.18;99.27;97729.97;10443634;28;20037;-65
2023/12/22 00:14:48;;;;;;;6.45;3.40;;;;;;;-1.24;99.47;97726.50;10432823;28;20041;-65
2023/12/22 00:19:50;;;;;;;8.18;4.22;;;;;;;-1.22;100.00;97737.78;10439705;28;20049;-65
2023/12/22 00:24:53;;;;;;;4.03;1.77;;;;;;;-1.28;100.00;97731.63;10438989;28;20394;-66
2023/12/22 00:29:55;;;;;;;9.20;5.68;;;;;;;-1.29;100.00;97730.00;10434501;28;20045;-64
2023/12/22 00:34:58;;;;;;;5.03;3.03;;;;;;;-1.26;99.10;97717.91;10427558;28;20544;-65
2023/12/22 00:40:00;;;;;;;7.50;4.43;;;;;;;-1.22;98.49;97727.03;10439206;28;20560;-65
2023/12/22 00:45:03;;;;;;;9.10;5.50;;;;;;;-1.20;98.15;97722.19;10434642;28;20036;-65
2023/12/22 00:50:07;;;;;;;7.72;4.28;;;;;;;-1.12;98.34;97702.75;10439592;28;20420;-65
2023/12/22 00:55:10;;;;;;;5.85;3.58;;;;;;;-1.17;96.17;97716.25;10437684;28;20041;-66
2023/12/22 01:00:14;;;;;;;8.75;4.90;;;;;;;-1.14;96.79;97699.56;10439993;28;20053;-65
2023/12/22 01:05:16;;;;;;;8.45;5.15;;;;;;;-1.11;95.15;97708.94;10432684;28;20037;-66
2023/12/22 01:10:19;;;;;;;3.47;1.92;;;;;;;-1.16;95.00;97677.50;10452229;28;20044;-66
2023/12/22 01:15:22;;;;;;;8.05;4.82;;;;;;;-1.22;94.57;97655.19;10448563;28;20047;-64
2023/12/22 01:20:24;;;;;;;11.88;5.35;;;;;;;-1.22;94.34;97654.38;10445957;28;20029;-64
2023/12/22 01:25:27;;;;;;;10.90;5.45;;;;;;;-1.25;94.67;97652.25;10444167;28;20041;-64
2023/12/22 01:30:29;;;;;;;16.27;7.38;;;;;;;-1.33;94.90;97642.91;10440743;28;20037;-65
2023/12/22 01:35:31;;;;;;;17.13;8.15;;;;;;;-1.35;95.30;97638.88;10445065;28;20048;-65
2023/12/22 01:40:35;;;;;;;21.00;9.60;;;;;;;-1.46;95.26;97619.28;10440784;28;20033;-64
2023/12/22 01:45:38;;;;;;;23.85;10.63;;;;;;;-1.43;94.57;97631.38;10440260;28;20563;-64
2023/12/22 01:50:41;;;;;;;23.73;10.65;;;;;;;-1.37;94.08;97630.28;10443558;28;20037;-64
2023/12/22 01:55:46;;;;;;;22.55;10.13;;;;;;;-1.34;94.06;97619.78;10443641;28;20041;-64
2023/12/22 02:00:48;;;;;;;21.27;9.63;;;;;;;-1.39;94.33;97610.91;10440721;28;20033;-64
2023/12/22 02:05:50;;;;;;;24.92;13.38;;;;;;;-1.45;94.73;97623.59;10444000;28;20041;-65
2023/12/22 02:10:53;;;;;;;23.73;11.00;;;;;;;-1.52;95.04;97607.78;10438707;28;20048;-65
2023/12/22 02:16:03;;;;;;;19.67;8.15;;;;;;;-1.52;95.41;97588.16;10429385;28;20046;-65
2023/12/22 02:21:05;;;;;;;15.75;6.78;;;;;;;-1.48;95.43;97574.94;10440770;28;20048;-65
2023/12/22 02:26:18;;;;;;;9.88;4.13;;;;;;;-1.54;94.91;97571.50;10441092;28;20045;-65
2023/12/22 02:31:44;;;;;;;16.38;8.23;;;;;;;-1.56;95.30;97562.91;10440664;28;20048;-65
2023/12/22 02:36:47;;;;;;;17.20;7.38;;;;;;;-1.64;95.37;97558.91;10439849;28;20586;-64
2023/12/22 02:41:50;;;;;;;8.15;4.10;;;;;;;-1.63;95.76;97567.75;10439184;28;20421;-64
2023/12/22 02:46:52;;;;;;;5.35;2.58;;;;;;;-1.67;95.68;97535.25;10441093;28;20136;-65
2023/12/22 02:51:54;;;;;;;13.45;7.65;;;;;;;-1.64;95.82;97544.66;10440286;28;20113;-65
2023/12/22 02:56:58;;;;;;;6.90;4.50;;;;;;;-1.66;96.26;97514.56;10441249;28;20827;-64
2023/12/22 03:02:02;;;;;;;8.27;4.38;;;;;;;-1.67;95.82;97531.78;10437214;28;20042;-65
2023/12/22 03:07:04;;;;;;;12.80;7.15;;;;;;;-1.69;95.74;97526.69;10439498;28;20448;-65
2023/12/22 03:12:07;;;;;;;11.10;5.05;;;;;;;-1.69;95.61;97494.41;10437125;28;20033;-64
2023/12/22 03:17:10;;;;;;;10.93;5.70;;;;;;;-1.70;95.97;97495.50;10444112;28;20048;-65
2023/12/22 03:22:13;;;;;;;11.05;5.20;;;;;;;-1.70;95.78;97502.75;10443526;28;20041;-65
2023/12/22 03:27:17;;;;;;;8.63;4.93;;;;;;;-1.66;95.35;97490.38;10441305;28;20512;-64
2023/12/22 03:32:20;;;;;;;8.93;4.75;;;;;;;-1.69;95.05;97494.41;10444182;28;20033;-64
2023/12/22 03:37:23;;;;;;;8.93;5.07;;;;;;;-1.64;94.38;97497.06;10435129;28;20037;-64
2023/12/22 03:42:25;;;;;;;8.68;4.25;;;;;;;-1.60;94.26;97492.72;10439761;28;20480;-64
2023/12/22 03:47:27;;;;;;;9.15;5.00;;;;;;;-1.67;94.67;97507.56;10442428;28;20045;-64
2023/12/22 03:52:30;;;;;;;8.45;4.75;;;;;;;-1.68;95.16;97487.16;10443001;28;20038;-63
2023/12/22 03:57:32;;;;;;;8.27;4.00;;;;;;;-1.76;95.74;97458.16;10441415;28;20521;-64
2023/12/22 04:02:34;;;;;;;9.30;5.97;;;;;;;-1.76;95.28;97482.34;10441887;28;20037;-65
2023/12/22 04:07:39;;;;;;;9.25;5.63;;;;;;;-1.79;95.31;97448.78;10450072;28;20066;-64
2023/12/22 04:12:41;;;;;;;8.65;5.30;;;;;;;-1.77;95.57;97461.94;10438624;28;20045;-65
2023/12/22 04:17:44;;;;;;;5.93;3.38;;;;;;;-1.73;95.54;97466.50;10440666;28;20483;-64
2023/12/22 04:22:46;;;;;;;7.38;3.92;;;;;;;-1.67;95.36;97438.50;10440157;28;20041;-65
2023/12/22 04:27:52;;;;;;;7.47;4.72;;;;;;;-1.70;95.23;97444.44;10443516;28;20051;-64
2023/12/22 04:32:56;;;;;;;4.68;3.25;;;;;;;-1.66;95.23;97434.72;10445691;28;20037;-64
2023/12/22 04:37:59;;;;;;;8.68;4.97;;;;;;;-1.64;95.27;97421.00;10452106;28;20032;-64
2023/12/22 04:43:01;;;;;;;6.00;1.92;;;;;;;-1.60;94.82;97422.84;10432771;28;20133;-64
2023/12/22 04:48:04;;;;;;;6.60;3.90;;;;;;;-1.62;94.99;97405.38;10443744;28;20053;-65
2023/12/22 04:53:08;;;;;;;7.57;4.75;;;;;;;-1.64;95.27;97421.00;10445642;28;20029;-65
2023/12/22 04:58:10;;;;;;;7.80;4.32;;;;;;;-1.67;95.78;97413.50;10465753;28;20421;-65
2023/12/22 05:03:12;;;;;;;5.35;2.92;;;;;;;-1.66;95.43;97397.09;10449057;28;20048;-65
2023/12/22 05:08:16;;;;;;;8.50;4.43;;;;;;;-1.71;95.98;97415.94;10421917;28;20056;-65
2023/12/22 05:13:18;;;;;;;7.53;3.25;;;;;;;-1.72;95.69;97387.47;10445945;28;20406;-65
2023/12/22 05:18:21;;;;;;;3.55;2.78;;;;;;;-1.69;95.92;97389.59;10448202;28;20048;-65
2023/12/22 05:23:23;;;;;;;5.50;2.85;;;;;;;-1.66;96.23;97378.25;10445609;28;20049;-65
2023/12/22 05:28:26;;;;;;;6.55;3.75;;;;;;;-1.67;95.96;97392.00;10446144;28;20045;-66
2023/12/22 05:33:29;;;;;;;7.22;4.30;;;;;;;-1.67;95.81;97384.72;10446002;28;20033;-64
2023/12/22 05:38:31;;;;;;;6.53;3.53;;;;;;;-1.62;96.06;97362.38;10445045;28;20041;-64
2023/12/22 05:43:34;;;;;;;5.38;2.90;;;;;;;-1.59;95.80;97364.47;10441073;28;20029;-64
2023/12/22 05:48:36;;;;;;;4.60;3.03;;;;;;;-1.55;96.11;97368.25;10448224;28;20064;-63
2023/12/22 05:53:40;;;;;;;4.63;2.38;;;;;;;-1.54;96.10;97362.56;10444083;28;20404;-65
2023/12/22 05:58:42;;;;;;;6.93;4.38;;;;;;;-1.52;96.51;97370.34;10442474;28;20041;-65
2023/12/22 06:03:46;;;;;;;4.50;2.70;;;;;;;-1.54;96.64;97359.09;10435511;28;20517;-64
2023/12/22 06:08:48;;;;;;;8.25;4.05;;;;;;;-1.51;97.29;97363.88;10426097;28;20425;-64
2023/12/22 06:13:51;;;;;;;7.82;3.75;;;;;;;-1.54;96.80;97351.81;10419305;28;20425;-64
2023/12/22 06:18:53;;;;;;;2.85;1.60;;;;;;;-1.41;97.50;97365.66;10437142;28;20045;-64
2023/12/22 06:23:56;;;;;;;7.40;4.10;;;;;;;-1.42;97.62;97348.72;10443502;28;20052;-64
2023/12/22 06:28:59;;;;;;;5.30;3.30;;;;;;;-1.41;97.53;97350.34;10443193;28;20041;-64
2023/12/22 06:34:02;;;;;;;3.03;1.85;;;;;;;-1.34;97.66;97341.94;10430593;28;20140;-65
2023/12/22 06:39:06;;;;;;;3.92;2.47;;;;;;;-1.36;98.62;97362.94;10443531;28;20037;-64
2023/12/22 06:44:10;;;;;;;4.20;2.78;;;;;;;-1.38;98.76;97343.59;10436802;28;20049;-64
2023/12/22 06:49:12;;;;;;;5.57;3.30;;;;;;;-1.38;99.05;97343.59;10429598;28;20054;-64
2023/12/22 06:54:16;;;;;;;3.70;2.03;;;;;;;-1.41;99.46;97353.03;10438560;28;20033;-64
2023/12/22 06:59:19;;;;;;;7.03;4.20;;;;;;;-1.42;100.00;97346.03;10442431;28;20040;-64
2023/12/22 07:04:21;;;;;;;1.67;1.38;;;;;;;-1.37;99.93;97350.59;10436970;28;20041;-64
2023/12/22 07:09:24;;;;;;;6.45;4.82;;;;;;;-1.44;100.00;97344.72;10436786;28;20037;-67
2023/12/22 07:14:27;;;;;;;4.57;2.72;;;;;;;-1.43;100.00;97336.38;10440541;28;20037;-64
2023/12/22 07:19:30;;;;;;;5.22;3.25;;;;;;;-1.45;100.00;97327.78;10437919;28;20044;-65
2023/12/22 07:24:34;;;;;;;5.30;3.58;;;;;;;-1.43;100.00;97322.94;10439039;28;20038;-64
2023/12/22 07:29:37;;;;;;;6.32;3.72;;;;;;;-1.40;100.00;97330.41;10436049;28;20493;-64
2023/12/22 07:34:39;;;;;;;5.55;3.83;;;;;;;-1.43;100.00;97316.75;10446824;28;20037;-64
2023/12/22 07:39:44;;;;;;;4.85;3.10;;;;;;;-1.41;100.00;97309.19;10441907;28;20584;-65
2023/12/22 07:44:47;;;;;;;5.57;4.43;;;;;;;-1.39;100.00;97315.09;10441590;28;20049;-65
2023/12/22 07:49:51;;;;;;;6.03;4.18;;;;;;;-1.40;100.00;97308.91;10443648;28;20501;-63
2023/12/22 07:54:54;;;;;;;5.97;4.20;;;;;;;-1.39;100.00;97312.41;10418932;28;20045;-63
2023/12/22 07:59:57;;;;;;;6.22;4.55;;;;;;;-1.38;100.00;97319.41;10404384;28;20060;-63
2023/12/22 08:05:00;;;;;;;5.13;3.65;;;;;;;-1.37;100.00;97299.50;10426451;28;20056;-64
2023/12/22 08:10:03;;;;;;;6.00;3.88;;;;;;;-1.35;100.00;97313.44;10442406;28;20126;-65
2023/12/22 08:15:07;;;;;;;5.15;4.07;;;;;;;-1.36;100.00;97325.28;10448102;28;20417;-64
2023/12/22 08:20:10;;;;;;;5.93;5.10;;;;;;;-1.37;100.00;97324.50;10450273;28;20037;-64
2023/12/22 08:25:15;;;;;;;5.40;3.58;;;;;;;-1.37;100.00;97302.19;10453497;28;20547;-64
2023/12/22 08:30:18;;;;;;;6.00;4.55;;;;;;;-1.41;100.00;97341.47;10455322;28;20029;-64
2023/12/22 08:35:21;;;;;;;5.47;3.88;;;;;;;-1.41;100.00;97303.81;10456019;28;20052;-64
2023/12/22 08:40:26;;;;;;;4.45;3.35;;;;;;;-1.39;100.00;97294.41;10455985;28;20029;-63
2023/12/22 08:45:28;;;;;;;4.60;3.08;;;;;;;-1.37;100.00;97288.72;10455634;28;20045;-63
2023/12/22 08:50:31;;;;;;;6.63;4.00;;;;;;;-1.36;100.00;97288.44;10448458;28;20124;-63
2023/12/22 08:55:34;;;;;;;4.80;3.20;;;;;;;-1.31;100.00;97279.50;10448262;28;20072;-64
2023/12/22 09:00:36;;;;;;;4.38;3.38;;;;;;;-1.29;100.00;97271.94;10454223;28;20041;-65
2023/12/22 09:05:40;;;;;;;5.70;3.33;;;;;;;-1.26;100.00;97268.69;10455353;28;20045;-62
2023/12/22 09:10:43;;;;;;;4.63;3.03;;;;;;;-1.26;100.00;97264.09;10450900;28;20037;-64
2023/12/22 09:15:48;;;;;;;5.60;3.63;;;;;;;-1.22;100.00;97240.91;10454060;28;20052;-65
2023/12/22 09:20:51;;;;;;;5.75;3.83;;;;;;;-1.22;100.00;97275.09;10453870;28;20042;-63
2023/12/22 09:25:55;;;;;;;4.55;3.28;;;;;;;-1.15;100.00;97245.97;10436973;28;20052;-62
2023/12/22 09:30:57;;;;;;;3.97;3.08;;;;;;;-1.19;100.00;97239.56;10447637;28;20037;-63
2023/12/22 09:36:01;;;;;;;3.95;3.08;;;;;;;-1.15;100.00;97243.28;10448635;28;20037;-63
2023/12/22 09:41:04;;;;;;;4.32;3.30;;;;;;;-1.14;100.00;97220.66;10445141;28;20037;-64
2023/12/22 09:46:11;;;;;;;4.65;3.15;;;;;;;-1.11;100.00;97213.91;10460632;28;20056;-63
2023/12/22 09:51:16;;;;;;;3.95;2.78;;;;;;;-1.11;100.00;97213.91;10441585;28;20067;-63
2023/12/22 09:56:20;;;;;;;4.72;3.58;;;;;;;-1.08;100.00;97205.25;10475035;28;20040;-63
2023/12/22 10:01:24;;;;;;;3.60;2.83;;;;;;;-1.05;100.00;97216.22;10429511;28;20037;-65
2023/12/22 10:06:27;;;;;;;4.78;3.30;;;;;;;-1.01;100.00;97206.50;10423934;28;20053;-65
2023/12/22 10:11:32;;;;;;;4.70;2.63;;;;;;;-0.98;100.00;97200.53;10439522;28;20413;-64
2023/12/22 10:16:37;;;;;;;3.85;2.47;;;;;;;-0.98;100.00;97181.69;10424027;28;20048;-64
2023/12/22 10:21:40;;;;;;;4.63;2.67;;;;;;;-0.97;100.00;97188.69;10445758;28;20436;-64
2023/12/22 10:26:42;;;;;;;2.92;2.40;;;;;;;-0.94;100.00;97171.94;10428888;28;20041;-64
2023/12/22 10:31:45;;;;;;;4.65;2.72;;;;;;;-0.84;100.00;97171.00;10437309;28;20501;-64
2023/12/22 10:36:48;;;;;;;3.88;2.38;;;;;;;-0.84;100.00;97167.50;10442618;28;20567;-65
2023/12/22 10:41:52;;;;;;;3.85;2.97;;;;;;;-0.81;100.00;97173.09;10440492;28;20045;-64
2023/12/22 10:46:56;;;;;;;4.28;2.28;;;;;;;-0.80;100.00;97169.31;10442845;28;20053;-64
2023/12/22 10:51:58;;;;;;;3.97;2.80;;;;;;;-0.77;100.00;97160.66;10418476;28;20029;-63
2023/12/22 10:57:01;;;;;;;3.15;2.50;;;;;;;-0.76;100.00;97174.91;10433946;28;20049;-64
2023/12/22 11:02:03;;;;;;;5.28;3.40;;;;;;;-0.74;100.00;97168.13;10444188;28;20037;-64
2023/12/22 11:07:06;;;;;;;2.55;1.48;;;;;;;-0.70;100.00;97160.28;10442278;28;20531;-64
2023/12/22 11:12:09;;;;;;;1.90;1.20;;;;;;;-0.67;100.00;97151.63;10438976;28;20060;-64
2023/12/22 11:17:12;;;;;;;1.85;1.13;;;;;;;-0.63;100.00;97158.81;10441807;28;20056;-65
2023/12/22 11:22:18;;;;;;;1.52;1.10;;;;;;;-0.60;100.00;97154.72;10445281;28;20029;-64
2023/12/22 11:27:20;;;;;;;2.55;1.63;;;;;;;-0.58;100.00;97151.75;10435027;28;20544;-65
2023/12/22 11:32:24;;;;;;;1.85;1.38;;;;;;;-0.55;100.00;97156.53;10429791;28;20038;-66
2023/12/22 11:37:26;;;;;;;2.83;1.60;;;;;;;-0.49;100.00;97166.94;10401766;28;20497;-65
2023/12/22 11:42:32;;;;;;;2.50;1.60;;;;;;;-0.45;100.00;97165.25;10417131;28;20030;-65
2023/12/22 11:47:34;;;;;;;2.53;1.30;;;;;;;-0.47;100.00;97158.56;10441649;28;20054;-65
2023/12/22 11:52:37;;;;;;;1.88;1.23;;;;;;;-0.43;100.00;97154.19;10443838;28;20489;-65
2023/12/22 11:57:40;;;;;;;1.35;1.00;;;;;;;-0.36;100.00;97152.69;10432506;28;20033;-64
2023/12/22 12:02:54;;;;;;;2.20;1.20;;;;;;;-0.34;100.00;97147.03;10439866;28;20509;-64
2023/12/22 12:08:06;;;;;;;3.45;1.98;;;;;;;-0.37;100.00;97161.88;10436154;28;20061;-66
2023/12/22 12:13:10;;;;;;;3.22;1.52;;;;;;;-0.35;100.00;97151.63;10443025;28;20049;-66
2023/12/22 12:18:12;;;;;;;2.88;1.13;;;;;;;-0.35;100.00;97151.63;10435116;28;20052;-66
2023/12/22 12:23:17;;;;;;;4.15;1.73;;;;;;;-0.35;100.00;97150.81;10408928;28;20048;-65
2023/12/22 12:28:25;;;;;;;2.35;0.93;;;;;;;-0.36;100.00;97133.84;10415276;28;20033;-66
2023/12/22 12:33:28;;;;;;;3.83;2.22;;;;;;;-0.37;100.00;97145.72;10433507;28;20034;-65
2023/12/22 12:38:49;;;;;;;3.88;1.85;;;;;;;-0.41;100.00;97158.19;10436435;28;20056;-65
2023/12/22 12:43:51;;;;;;;2.92;1.90;;;;;;;-0.41;100.00;97146.63;10439143;28;20570;-65
2023/12/22 12:49:14;;;;;;;2.55;2.03;;;;;;;-0.39;100.00;97156.00;10439725;28;20056;-65
2023/12/22 12:54:18;;;;;;;3.20;2.40;;;;;;;-0.40;100.00;97145.50;10440844;28;20033;-65
2023/12/22 12:59:20;;;;;;;2.20;1.70;;;;;;;-0.43;100.00;97157.69;10426664;28;20045;-65
2023/12/22 13:04:22;;;;;;;3.65;1.85;;;;;;;-0.45;100.00;97162.56;10438009;28;20041;-65
2023/12/22 13:09:32;;;;;;;2.38;1.98;;;;;;;-0.47;100.00;97148.59;10443894;28;20051;-64
2023/12/22 13:14:36;;;;;;;3.55;2.13;;;;;;;-0.49;100.00;97150.78;10448963;28;20034;-65
2023/12/22 13:19:39;;;;;;;2.10;1.88;;;;;;;-0.49;100.00;97156.19;10436823;28;20037;-65
2023/12/22 13:24:54;;;;;;;3.00;2.10;;;;;;;-0.49;100.00;97145.41;10427363;28;20413;-65
2023/12/22 13:29:57;;;;;;;2.65;2.20;;;;;;;-0.45;100.00;97142.91;10442404;28;20037;-66
2023/12/22 13:35:00;;;;;;;4.00;2.53;;;;;;;-0.47;100.00;97158.56;10441981;28;20433;-65
2023/12/22 13:40:08;;;;;;;2.65;1.90;;;;;;;-0.48;100.00;97149.69;10441148;28;20048;-65
2023/12/22 13:45:11;;;;;;;3.72;2.50;;;;;;;-0.47;100.00;97147.81;10424221;28;20517;-64
2023/12/22 13:50:18;;;;;;;3.13;2.80;;;;;;;-0.47;100.00;97153.19;10434364;28;20030;-64
2023/12/22 13:55:25;;;;;;;3.30;2.30;;;;;;;-0.49;100.00;97150.78;10429710;28;20045;-63
2023/12/22 14:00:29;;;;;;;2.40;2.00;;;;;;;-0.47;100.00;97154.00;10441334;28;20041;-62
2023/12/22 14:05:32;;;;;;;3.75;2.58;;;;;;;-0.47;100.00;97148.59;10441976;28;20567;-63
2023/12/22 14:10:36;;;;;;;3.55;2.50;;;;;;;-0.46;100.00;97154.78;10441650;28;20424;-63
2023/12/22 14:15:39;;;;;;;3.40;2.60;;;;;;;-0.44;100.00;97149.91;10443407;28;20045;-64
2023/12/22 14:20:43;;;;;;;3.30;2.40;;;;;;;-0.43;100.00;97163.06;10444143;28;20052;-63
2023/12/22 14:25:45;;;;;;;3.38;2.35;;;;;;;-0.41;100.00;97154.69;10438327;28;20052;-64
2023/12/22 14:30:48;;;;;;;2.63;2.40;;;;;;;-0.37;100.00;97163.78;10438930;28;20034;-65
2023/12/22 14:35:52;;;;;;;3.72;2.40;;;;;;;-0.36;100.00;97163.47;10444821;28;20512;-64
2023/12/22 14:40:54;;;;;;;2.03;1.70;;;;;;;-0.34;100.00;97177.47;10444661;28;20528;-64
2023/12/22 14:45:56;;;;;;;3.22;2.45;;;;;;;-0.33;100.00;97175.56;10433823;28;20085;-65
2023/12/22 14:50:58;;;;;;;2.97;2.35;;;;;;;-0.31;100.00;97173.38;10438319;28;20037;-64
2023/12/22 14:56:01;;;;;;;3.50;2.50;;;;;;;-0.29;100.00;97162.31;10446347;28;20531;-64
2023/12/22 15:01:03;;;;;;;2.88;2.20;;;;;;;-0.26;100.00;97162.50;10446581;28;20087;-65
2023/12/22 15:06:06;;;;;;;2.67;2.40;;;;;;;-0.24;100.00;97165.72;10435723;28;20041;-65
2023/12/22 15:11:08;;;;;;;8.82;4.88;;;;;;;-0.21;100.00;97167.00;10431622;28;20041;-65
2023/12/22 15:16:11;;;;;;;11.85;5.63;;;;;;;-0.16;100.00;97175.03;10435124;28;20033;-65
2023/12/22 15:21:24;;;;;;;14.07;7.30;;;;;;;-0.17;100.00;97170.72;10439729;28;20037;-66
2023/12/22 15:26:27;;;;;;;15.63;7.75;;;;;;;-0.17;100.00;97184.19;10444843;28;20041;-65
2023/12/22 15:31:30;;;;;;;10.13;5.80;;;;;;;-0.15;100.00;97187.41;10430295;28;20044;-64
2023/12/22 15:36:33;;;;;;;6.18;3.75;;;;;;;-0.17;100.00;97201.16;10420114;28;20069;-64
2023/12/22 15:41:35;;;;;;;8.65;4.80;;;;;;;-0.16;100.00;97193.88;10401337;28;20421;-64
2023/12/22 15:46:37;;;;;;;7.03;3.63;;;;;;;-0.14;100.00;97191.69;10429572;28;20061;-64
2023/12/22 15:51:41;;;;;;;5.75;3.47;;;;;;;-0.11;100.00;97188.41;10443249;28;20045;-65
2023/12/22 15:56:43;;;;;;;5.15;3.05;;;;;;;-0.10;100.00;97211.56;10443272;28;20049;-66
2023/12/22 16:01:45;;;;;;;3.75;3.15;;;;;;;-0.11;100.00;97199.19;10442874;28;20080;-65
2023/12/22 16:06:48;;;;;;;4.18;3.08;;;;;;;-0.09;100.00;97194.28;10443067;28;20413;-65
2023/12/22 16:11:52;;;;;;;3.58;2.88;;;;;;;-0.09;100.00;97183.50;10442387;28;20157;-65
2023/12/22 16:16:55;;;;;;;3.78;2.85;;;;;;;-0.09;100.00;97180.81;10442784;28;20398;-65
2023/12/22 16:21:58;;;;;;;3.65;2.63;;;;;;;-0.07;100.00;97184.81;10437848;28;20048;-65
2023/12/22 16:27:01;;;;;;;2.25;2.05;;;;;;;-0.04;100.00;97194.19;10441238;28;20488;-65
2023/12/22 16:32:05;;;;;;;9.90;3.47;;;;;;;-0.04;100.00;97197.69;10442784;28;20041;-66
2023/12/22 16:37:07;;;;;;;2.67;2.20;;;;;;;0.02;100.00;97206.50;10448518;28;20074;-65
2023/12/22 16:42:10;;;;;;;3.50;2.88;;;;;;;0.01;100.00;97209.50;10445979;28;20037;-65
2023/12/22 16:47:12;;;;;;;5.65;3.60;;;;;;;0.01;100.00;97206.78;10449012;28;20076;-65
2023/12/22 16:52:15;;;;;;;5.80;3.88;;;;;;;-0.01;100.00;97215.94;10432783;28;20037;-65
2023/12/22 16:57:17;;;;;;;4.32;3.35;;;;;;;0.01;100.00;97207.59;10450709;28;20046;-66
2023/12/22 17:02:20;;;;;;;3.90;3.00;;;;;;;0.01;100.00;97215.69;10450221;28;20048;-65
2023/12/22 17:07:22;;;;;;;5.63;3.83;;;;;;;0.05;100.00;97218.56;10449460;28;20041;-65
2023/12/22 17:12:25;;;;;;;5.63;3.38;;;;;;;0.03;100.00;97224.25;10442798;28;20423;-66
2023/12/22 17:17:27;;;;;;;4.25;3.10;;;;;;;0.02;100.00;97221.88;10424094;28;20429;-64
2023/12/22 17:22:30;;;;;;;3.95;3.10;;;;;;;0.03;100.00;97221.56;10436483;28;20034;-65
2023/12/22 17:27:32;;;;;;;4.85;3.60;;;;;;;0.03;100.00;97221.56;10443991;28;20037;-66
2023/12/22 17:32:35;;;;;;;5.35;3.00;;;;;;;0.06;100.00;97226.38;10439454;28;20124;-66
2023/12/22 17:37:37;;;;;;;4.43;2.83;;;;;;;0.08;100.00;97228.75;10423728;28;20048;-65
2023/12/22 17:42:41;;;;;;;4.35;3.40;;;;;;;0.09;100.00;97220.38;10406600;28;20037;-66
2023/12/22 17:47:43;;;;;;;4.80;3.30;;;;;;;0.09;100.00;97223.06;10427912;28;20529;-65
2023/12/22 17:52:46;;;;;;;5.10;3.80;;;;;;;0.09;100.00;97214.97;10432038;28;20040;-65
2023/12/22 17:57:48;;;;;;;3.05;2.58;;;;;;;0.05;100.00;97211.28;10414997;28;20042;-66
2023/12/22 18:02:51;;;;;;;3.38;2.33;;;;;;;0.07;100.00;97203.69;10412890;28;20044;-66
2023/12/22 18:07:53;;;;;;;5.82;2.42;;;;;;;0.08;100.00;97216.09;10425612;28;20457;-66
2023/12/22 18:12:55;;;;;;;5.93;3.65;;;;;;;0.09;100.00;97212.28;10418110;28;22537;-65
2023/12/22 18:17:58;;;;;;;4.28;3.17;;;;;;;0.11;100.00;97209.28;10445592;28;20042;-66
2023/12/22 18:23:00;;;;;;;3.67;2.65;;;;;;;0.13;100.00;97209.78;10449064;28;20053;-67
2023/12/22 18:28:02;;;;;;;5.63;4.00;;;;;;;0.14;100.00;97222.16;10448810;28;20048;-65
2023/12/22 18:33:04;;;;;;;4.68;2.72;;;;;;;0.17;100.00;97224.28;10416866;28;20045;-65
2023/12/22 18:38:08;;;;;;;4.68;3.60;;;;;;;0.14;100.00;97228.34;10405164;28;20049;-65
2023/12/22 18:43:10;;;;;;;6.75;4.25;;;;;;;0.12;100.00;97221.66;10404831;28;20042;-66
2023/12/22 18:48:12;;;;;;;6.07;4.03;;;;;;;0.15;100.00;97221.88;10404754;28;20054;-64
2023/12/22 18:53:16;;;;;;;5.28;3.22;;;;;;;0.10;100.00;97230.06;10427789;28;20034;-66
2023/12/22 18:58:20;;;;;;;3.33;2.90;;;;;;;0.09;100.00;97231.16;10436022;28;20052;-66
2023/12/22 19:03:23;;;;;;;4.95;3.38;;;;;;;0.06;100.00;97237.16;10434867;28;20045;-65
2023/12/22 19:08:25;;;;;;;6.30;3.65;;;;;;;0.04;100.00;97239.34;10423505;28;20052;-64
2023/12/22 19:13:28;;;;;;;3.65;2.90;;;;;;;0.02;100.00;97243.44;10421058;28;20033;-65
2023/12/22 19:18:33;;;;;;;3.85;2.95;;;;;;;0.00;100.00;97246.44;10417241;28;20057;-66
2023/12/22 19:23:35;;;;;;;7.15;4.35;;;;;;;-0.04;100.00;97240.81;10403544;28;20520;-66
2023/12/22 19:28:37;;;;;;;3.30;2.60;;;;;;;-0.03;100.00;97238.91;10402715;28;20038;-65
2023/12/22 19:33:41;;;;;;;3.30;2.17;;;;;;;-0.04;100.00;97248.88;10403195;28;20045;-65
2023/12/22 19:38:43;;;;;;;2.80;2.45;;;;;;;-0.04;100.00;97248.88;10403213;28;20042;-65
2023/12/22 19:43:46;;;;;;;3.40;2.20;;;;;;;-0.06;100.00;97258.38;10402955;28;20037;-66
2023/12/22 19:48:49;;;;;;;3.80;2.15;;;;;;;-0.08;100.00;97263.25;10403005;28;20054;-65
2023/12/22 19:53:51;;;;;;;2.53;2.00;;;;;;;-0.11;100.00;97258.47;10410069;28;20033;-66
2023/12/22 19:58:55;;;;;;;2.92;1.88;;;;;;;-0.13;100.00;97271.44;10426700;28;20064;-66
2023/12/22 20:03:58;;;;;;;5.32;2.20;;;;;;;-0.18;100.00;97266.09;10442005;28;20056;-66
2023/12/22 20:09:01;;;;;;;3.13;2.20;;;;;;;-0.20;100.00;97260.22;10441167;28;20067;-66
2023/12/22 20:14:05;;;;;;;1.38;1.27;;;;;;;-0.23;100.00;97264.31;10439184;28;20030;-66
2023/12/22 20:19:08;;;;;;;2.33;1.70;;;;;;;-0.27;100.00;97275.97;10442463;28;20045;-66
2023/12/22 20:24:10;;;;;;;1.75;1.13;;;;;;;-0.27;100.00;97276.75;10443064;28;20033;-66
2023/12/22 20:29:13;;;;;;;2.00;1.40;;;;;;;-0.28;100.00;97274.38;10441536;28;20037;-66
2023/12/22 20:34:15;;;;;;;2.10;1.70;;;;;;;-0.23;100.00;97279.66;10443026;28;20041;-66
2023/12/22 20:39:19;;;;;;;2.15;1.80;;;;;;;-0.26;100.00;97282.94;10442806;28;20057;-66
2023/12/22 20:44:25;;;;;;;3.70;1.77;;;;;;;-0.26;100.00;97281.06;10442391;28;20038;-66
2023/12/22 20:49:29;;;;;;;2.60;1.85;;;;;;;-0.27;100.00;97276.75;10420340;28;20065;-66
2023/12/22 20:54:33;;;;;;;2.33;1.60;;;;;;;-0.27;100.00;97286.75;10405293;28;20610;-66
2023/12/22 20:59:37;;;;;;;2.67;1.63;;;;;;;-0.31;100.00;97294.63;10413553;28;20044;-64
2023/12/22 21:04:39;;;;;;;2.03;1.65;;;;;;;-0.37;100.00;97306.53;10417380;28;20037;-66
2023/12/22 21:09:43;;;;;;;1.92;1.13;;;;;;;-0.41;100.00;97297.44;10432542;28;20034;-65
2023/12/22 21:14:46;;;;;;;2.88;1.75;;;;;;;-0.43;100.00;97308.50;10397026;28;20038;-65
2023/12/22 21:19:48;;;;;;;1.95;1.50;;;;;;;-0.45;100.00;97310.69;10412645;28;20044;-65
2023/12/22 21:24:50;;;;;;;1.30;1.20;;;;;;;-0.48;100.00;97313.97;10443523;28;20040;-65
2023/12/22 21:29:52;;;;;;;1.52;1.42;;;;;;;-0.49;100.00;97307.00;10408984;28;20060;-66
2023/12/22 21:34:55;;;;;;;2.47;1.45;;;;;;;-0.48;100.00;97315.88;10410880;28;20037;-65
2023/12/22 21:39:57;;;;;;;1.63;1.17;;;;;;;-0.50;100.00;97305.41;10431407;28;20046;-66
2023/12/22 21:44:59;;;;;;;1.20;1.10;;;;;;;-0.54;100.00;97293.56;10418543;28;20037;-65
2023/12/22 21:50:03;;;;;;;1.73;1.48;;;;;;;-0.52;100.00;97309.44;10426365;28;20516;-66
2023/12/22 21:55:06;;;;;;;1.05;0.95;;;;;;;-0.54;100.00;97303.56;10419893;28;20029;-65
2023/12/22 22:00:09;;;;;;;1.00;0.90;;;;;;;-0.56;100.00;97309.22;10448787;28;20041;-65
2023/12/22 22:05:12;;;;;;;1.60;0.98;;;;;;;-0.55;100.00;97313.53;10448374;28;20048;-64
2023/12/22 22:10:15;;;;;;;1.00;0.77;;;;;;;-0.55;100.00;97307.34;10443063;28;20044;-66
2023/12/22 22:15:18;;;;;;;2.50;1.15;;;;;;;-0.56;100.00;97306.53;10442743;28;20037;-67
2023/12/22 22:20:20;;;;;;;0.75;0.75;;;;;;;-0.58;100.00;97307.91;10442544;28;20049;-64
2023/12/22 22:25:22;;;;;;;1.13;1.02;;;;;;;-0.56;100.00;97319.19;10427629;28;20033;-65
2023/12/22 22:30:26;;;;;;;1.23;1.00;;;;;;;-0.60;100.00;97302.81;10401295;28;20426;-65
2023/12/22 22:35:29;;;;;;;0.93;0.93;;;;;;;-0.57;100.00;97304.13;10400244;28;20513;-65
2023/12/22 22:40:31;;;;;;;1.02;0.88;;;;;;;-0.59;100.00;97307.13;10399663;28;20046;-65
2023/12/22 22:45:34;;;;;;;1.63;1.10;;;;;;;-0.62;100.00;97308.50;10400779;28;20065;-65
2023/12/22 22:50:36;;;;;;;1.20;0.98;;;;;;;-0.58;100.00;97307.91;10434376;28;20048;-65
2023/12/22 22:55:39;;;;;;;3.20;1.40;;;;;;;-0.56;100.00;97300.34;10423111;28;20025;-64
2023/12/22 23:00:41;;;;;;;4.05;1.60;;;;;;;-0.57;100.00;97301.44;10432409;28;20068;-65
2023/12/22 23:05:46;;;;;;;1.60;1.50;;;;;;;-0.54;100.00;97311.63;10433527;28;20037;-64
2023/12/22 23:10:48;;;;;;;1.58;1.30;;;;;;;-0.53;100.00;97303.25;10465727;28;20041;-64
2023/12/22 23:15:51;;;;;;;1.90;1.42;;;;;;;-0.56;100.00;97303.84;10438402;28;20037;-64
2023/12/22 23:20:53;;;;;;;1.30;1.20;;;;;;;-0.53;100.00;97307.84;10437970;28;20042;-64